createdAt,value
2023-04-24T00:01:03.194Z,16.25
2023-04-24T00:03:34.449Z,16.25
2023-04-24T00:06:04.316Z,16.27
2023-04-24T00:08:33.439Z,16.26
2023-04-24T00:11:02.835Z,16.26
2023-04-24T00:13:32.668Z,16.30
2023-04-24T00:16:02.266Z,16.34
2023-04-24T00:18:31.362Z,16.33
2023-04-24T00:21:00.381Z,16.30
2023-04-24T00:23:29.371Z,16.30
2023-04-24T00:25:58.338Z,16.28
2023-04-24T00:28:27.051Z,16.26
2023-04-24T00:30:56.110Z,16.18
2023-04-24T00:33:24.766Z,16.11
2023-04-24T00:35:53.524Z,16.10
2023-04-24T00:38:23.471Z,16.14
2023-04-24T00:40:52.482Z,16.19
2023-04-24T00:43:21.382Z,16.16
2023-04-24T00:45:50.403Z,16.15
2023-04-24T00:48:20.070Z,16.16
2023-04-24T00:50:49.044Z,16.17
2023-04-24T00:53:18.001Z,16.17
2023-04-24T00:55:47.479Z,16.07
2023-04-24T00:58:16.617Z,16.04
2023-04-24T01:00:46.875Z,16.10
2023-04-24T01:03:16.043Z,16.13
2023-04-24T01:05:45.068Z,16.09
2023-04-24T01:08:14.461Z,16.06
2023-04-24T01:10:45.177Z,16.06
2023-04-24T01:13:15.830Z,16.10
2023-04-24T01:15:44.852Z,16.09
2023-04-24T01:18:14.096Z,16.08
2023-04-24T01:20:45.682Z,16.08
2023-04-24T01:23:14.392Z,16.12
2023-04-24T01:25:44.033Z,16.14
2023-04-24T01:28:12.847Z,16.13
2023-04-24T01:30:42.319Z,16.13
2023-04-24T01:33:11.713Z,16.14
2023-04-24T01:35:40.777Z,16.19
2023-04-24T01:38:10.045Z,16.16
2023-04-24T01:40:39.337Z,16.13
2023-04-24T01:43:08.958Z,16.15
2023-04-24T01:45:38.575Z,16.18
2023-04-24T01:48:07.695Z,16.18
2023-04-24T01:50:36.669Z,16.17
2023-04-24T01:53:05.945Z,16.19
2023-04-24T01:55:34.949Z,16.16
2023-04-24T01:58:04.006Z,16.14
2023-04-24T02:00:32.922Z,16.16
2023-04-24T02:03:03.429Z,16.19
2023-04-24T02:05:32.601Z,16.22
2023-04-24T02:08:01.980Z,16.27
2023-04-24T02:10:31.447Z,16.23
2023-04-24T02:13:01.350Z,16.22
2023-04-24T02:15:30.190Z,16.25
2023-04-24T02:17:59.115Z,16.28
2023-04-24T02:20:27.870Z,16.30
2023-04-24T02:22:56.858Z,16.29
2023-04-24T02:25:25.962Z,16.26
2023-04-24T02:27:54.718Z,16.35
2023-04-24T02:30:23.512Z,16.39
2023-04-24T02:32:53.006Z,16.37
2023-04-24T02:35:22.004Z,16.37
2023-04-24T02:37:51.350Z,16.40
2023-04-24T02:40:20.352Z,16.47
2023-04-24T02:42:49.198Z,16.45
2023-04-24T02:45:18.377Z,16.40
2023-04-24T02:47:47.546Z,16.31
2023-04-24T02:50:16.517Z,16.30
2023-04-24T02:52:45.255Z,16.39
2023-04-24T02:55:14.366Z,16.44
2023-04-24T02:57:43.123Z,16.42
2023-04-24T03:00:13.034Z,16.37
2023-04-24T03:02:42.028Z,16.41
2023-04-24T03:05:13.341Z,16.48
2023-04-24T03:07:42.322Z,16.48
2023-04-24T03:10:11.641Z,16.50
2023-04-24T03:12:40.623Z,16.52
2023-04-24T03:15:10.468Z,16.55
2023-04-24T03:17:39.676Z,16.51
2023-04-24T03:20:12.467Z,16.43
2023-04-24T03:22:41.513Z,16.37
2023-04-24T03:25:11.244Z,16.35
2023-04-24T03:27:40.822Z,16.34
2023-04-24T03:30:10.546Z,16.31
2023-04-24T03:32:40.855Z,16.31
2023-04-24T03:35:10.202Z,16.32
2023-04-24T03:37:39.222Z,16.34
2023-04-24T03:40:09.935Z,16.36
2023-04-24T03:42:39.502Z,16.36
2023-04-24T03:45:09.230Z,16.38
2023-04-24T03:47:38.105Z,16.43
2023-04-24T03:50:07.718Z,16.45
2023-04-24T03:52:36.840Z,16.40
2023-04-24T03:55:06.085Z,16.39
2023-04-24T03:57:35.182Z,16.37
2023-04-24T04:00:06.905Z,16.37
2023-04-24T04:02:36.631Z,16.35
2023-04-24T04:05:06.514Z,16.25
2023-04-24T04:07:35.864Z,16.18
2023-04-24T04:10:05.473Z,16.18
2023-04-24T04:12:34.545Z,16.20
2023-04-24T04:15:05.141Z,16.20
2023-04-24T04:17:34.777Z,16.17
2023-04-24T04:20:07.197Z,16.19
2023-04-24T04:22:37.122Z,16.20
2023-04-24T04:25:06.827Z,16.23
2023-04-24T04:27:36.736Z,16.22
2023-04-24T04:30:06.746Z,16.22
2023-04-24T04:32:39.283Z,16.22
2023-04-24T04:35:09.165Z,16.23
2023-04-24T04:37:38.259Z,16.21
2023-04-24T04:40:08.735Z,15.92
2023-04-24T04:42:41.592Z,15.54
2023-04-24T04:45:12.670Z,15.32
2023-04-24T04:47:42.341Z,15.24
2023-04-24T04:50:12.146Z,15.28
2023-04-24T04:52:41.151Z,15.35
2023-04-24T04:55:10.558Z,15.39
2023-04-24T04:57:39.665Z,15.44
2023-04-24T05:00:12.271Z,15.43
2023-04-24T05:02:42.137Z,15.40
2023-04-24T05:05:12.702Z,15.46
2023-04-24T05:07:41.852Z,15.53
2023-04-24T05:10:11.311Z,15.61
2023-04-24T05:12:40.871Z,15.70
2023-04-24T05:15:10.889Z,15.76
2023-04-24T05:17:41.541Z,15.77
2023-04-24T05:20:11.488Z,15.73
2023-04-24T05:22:41.013Z,15.56
2023-04-24T05:25:10.836Z,15.17
2023-04-24T05:27:40.583Z,14.78
2023-04-24T05:30:10.964Z,14.62
2023-04-24T05:32:40.244Z,14.56
2023-04-24T05:35:10.046Z,14.58
2023-04-24T05:37:38.940Z,14.58
2023-04-24T05:40:08.432Z,14.67
2023-04-24T05:42:38.018Z,14.76
2023-04-24T05:45:07.926Z,14.84
2023-04-24T05:47:37.251Z,14.92
2023-04-24T05:50:07.519Z,15.02
2023-04-24T05:52:36.316Z,15.05
2023-04-24T05:55:05.618Z,15.16
2023-04-24T05:57:34.786Z,15.29
2023-04-24T06:00:04.088Z,15.43
2023-04-24T06:02:34.202Z,15.59
2023-04-24T06:05:03.633Z,15.74
2023-04-24T06:07:33.331Z,15.86
2023-04-24T06:10:02.825Z,16.00
2023-04-24T06:12:32.736Z,16.13
2023-04-24T06:15:02.526Z,16.28
2023-04-24T06:17:33.608Z,16.46
2023-04-24T06:20:07.562Z,16.65
2023-04-24T06:22:38.167Z,16.81
2023-04-24T06:25:09.797Z,16.91
2023-04-24T06:27:39.207Z,16.94
2023-04-24T06:30:08.889Z,16.92
2023-04-24T06:32:38.099Z,16.91
2023-04-24T06:35:09.539Z,16.93
2023-04-24T06:37:38.488Z,16.94
2023-04-24T06:40:08.782Z,16.97
2023-04-24T06:42:37.971Z,16.96
2023-04-24T06:45:07.512Z,16.83
2023-04-24T06:47:36.853Z,16.78
2023-04-24T06:50:06.461Z,16.81
2023-04-24T06:52:35.406Z,17.05
2023-04-24T06:55:05.712Z,17.48
2023-04-24T06:57:35.413Z,17.84
2023-04-24T07:00:06.633Z,18.40
2023-04-24T07:02:36.080Z,18.68
2023-04-24T07:05:07.447Z,18.96
2023-04-24T07:07:39.023Z,19.16
2023-04-24T07:10:08.396Z,19.49
2023-04-24T07:12:37.574Z,19.73
2023-04-24T07:15:09.312Z,19.72
2023-04-24T07:17:39.834Z,19.49
2023-04-24T07:20:11.124Z,19.43
2023-04-24T07:22:40.493Z,19.20
2023-04-24T07:25:09.795Z,19.06
2023-04-24T07:27:38.913Z,18.90
2023-04-24T07:30:09.103Z,18.70
2023-04-24T07:32:38.405Z,18.44
2023-04-24T07:35:08.094Z,18.20
2023-04-24T07:37:38.002Z,17.97
2023-04-24T07:40:08.286Z,17.79
2023-04-24T07:42:37.923Z,17.71
2023-04-24T07:45:07.824Z,17.61
2023-04-24T07:47:38.984Z,17.48
2023-04-24T07:50:08.516Z,17.38
2023-04-24T07:52:58.915Z,17.20
2023-04-24T07:56:00.181Z,16.80
2023-04-24T07:58:32.909Z,16.60
2023-04-24T08:01:03.089Z,16.20
2023-04-24T08:03:32.845Z,15.68
2023-04-24T08:06:03.990Z,15.05
2023-04-24T08:08:34.112Z,14.64
2023-04-24T08:11:03.800Z,14.51
2023-04-24T08:13:33.158Z,14.53
2023-04-24T08:16:02.260Z,14.59
2023-04-24T08:18:31.914Z,14.68
2023-04-24T08:21:03.444Z,14.83
2023-04-24T08:23:32.533Z,15.02
2023-04-24T08:26:01.878Z,15.14
2023-04-24T08:28:31.670Z,15.26
2023-04-24T08:31:00.926Z,15.68
2023-04-24T08:33:35.930Z,17.02
2023-04-24T08:36:06.858Z,19.08
2023-04-24T08:38:35.736Z,21.11
2023-04-24T08:41:06.348Z,22.77
2023-04-24T08:43:38.280Z,24.52
2023-04-24T08:46:11.064Z,26.05
2023-04-24T08:48:41.605Z,27.19
2023-04-24T08:51:12.413Z,27.68
2023-04-24T08:53:42.291Z,27.48
2023-04-24T08:56:13.855Z,26.69
2023-04-24T08:58:49.333Z,25.79
2023-04-24T09:01:20.270Z,24.73
2023-04-24T09:03:53.019Z,23.85
2023-04-24T09:06:25.056Z,23.02
2023-04-24T09:08:55.742Z,22.47
2023-04-24T09:11:26.631Z,22.63
2023-04-24T09:13:56.922Z,23.42
2023-04-24T09:16:27.374Z,23.66
2023-04-24T09:18:57.967Z,23.56
2023-04-24T09:21:36.188Z,23.46
2023-04-24T09:24:08.873Z,23.64
2023-04-24T09:26:38.922Z,23.52
2023-04-24T09:29:08.322Z,23.57
2023-04-24T09:31:37.049Z,23.29
2023-04-24T09:34:09.686Z,23.54
2023-04-24T09:36:41.494Z,25.38
2023-04-24T09:39:13.442Z,26.83
2023-04-24T09:41:49.815Z,26.62
2023-04-24T09:44:23.612Z,25.76
2023-04-24T09:46:58.138Z,25.16
2023-04-24T09:49:29.807Z,24.62
2023-04-24T09:52:13.040Z,24.16
2023-04-24T09:54:42.834Z,23.57
2023-04-24T09:57:12.813Z,23.10
2023-04-24T09:59:48.393Z,23.18
2023-04-24T10:02:22.258Z,24.23
2023-04-24T10:05:01.502Z,24.54
2023-04-24T10:07:31.135Z,25.82
2023-04-24T10:10:01.176Z,27.32
2023-04-24T10:12:31.436Z,28.25
2023-04-24T10:15:03.156Z,29.14
2023-04-24T10:17:33.221Z,29.35
2023-04-24T10:20:04.195Z,28.61
2023-04-24T10:22:34.686Z,28.73
2023-04-24T10:25:06.472Z,29.72
2023-04-24T10:27:36.775Z,30.62
2023-04-24T10:30:08.499Z,31.13
2023-04-24T10:32:38.028Z,31.48
2023-04-24T10:35:14.395Z,32.02
2023-04-24T10:37:50.432Z,32.70
2023-04-24T10:40:26.745Z,33.15
2023-04-24T10:42:58.688Z,33.77
2023-04-24T10:45:28.584Z,33.75
2023-04-24T10:48:06.384Z,33.72
2023-04-24T10:50:44.358Z,33.27
2023-04-24T10:53:28.456Z,32.03
2023-04-24T10:56:08.987Z,32.52
2023-04-24T10:58:46.566Z,32.46
2023-04-24T11:01:30.017Z,32.30
2023-04-24T11:04:01.803Z,31.85
2023-04-24T11:06:38.997Z,30.75
2023-04-24T11:09:09.588Z,30.18
2023-04-24T11:11:42.084Z,30.43
2023-04-24T11:14:11.951Z,30.75
2023-04-24T11:16:46.022Z,30.99
2023-04-24T11:19:18.125Z,31.78
2023-04-24T11:21:50.868Z,31.34
2023-04-24T11:24:38.826Z,31.71
2023-04-24T11:27:21.089Z,31.82
2023-04-24T11:30:02.410Z,31.41
2023-04-24T11:32:36.758Z,31.21
2023-04-24T11:35:09.042Z,31.09
2023-04-24T11:37:40.290Z,30.90
2023-04-24T11:40:16.897Z,30.29
2023-04-24T11:42:48.074Z,30.07
2023-04-24T11:45:24.275Z,29.96
2023-04-24T11:47:55.530Z,30.05
2023-04-24T11:50:28.270Z,30.72
2023-04-24T11:52:58.281Z,30.37
2023-04-24T11:55:29.152Z,30.30
2023-04-24T11:58:00.951Z,31.18
2023-04-24T12:00:32.783Z,32.35
2023-04-24T12:03:11.152Z,32.17
2023-04-24T12:05:42.298Z,32.20
2023-04-24T12:08:12.029Z,33.20
2023-04-24T12:10:41.905Z,32.47
2023-04-24T12:13:12.964Z,31.58
2023-04-24T12:15:42.934Z,31.28
2023-04-24T12:18:15.742Z,31.01
2023-04-24T12:20:45.394Z,31.47
2023-04-24T12:23:14.596Z,32.29
2023-04-24T12:25:44.016Z,32.98
2023-04-24T12:28:15.098Z,33.40
2023-04-24T12:30:50.580Z,33.41
2023-04-24T12:33:21.502Z,33.32
2023-04-24T12:35:58.503Z,33.45
2023-04-24T12:38:41.492Z,33.68
2023-04-24T12:41:14.285Z,33.62
2023-04-24T12:43:54.910Z,34.17
2023-04-24T12:46:24.894Z,34.61
2023-04-24T12:48:55.263Z,34.53
2023-04-24T12:51:26.159Z,34.61
2023-04-24T12:53:57.255Z,34.25
2023-04-24T12:56:30.872Z,34.00
2023-04-24T12:59:02.101Z,34.19
2023-04-24T13:01:32.896Z,33.67
2023-04-24T13:04:02.064Z,33.60
2023-04-24T13:06:32.477Z,33.66
2023-04-24T13:09:01.619Z,33.73
2023-04-24T13:11:31.225Z,33.58
2023-04-24T13:14:00.449Z,33.29
2023-04-24T13:16:29.591Z,33.30
2023-04-24T13:18:58.979Z,33.47
2023-04-24T13:21:29.060Z,33.65
2023-04-24T13:23:58.910Z,33.74
2023-04-24T13:26:28.322Z,33.81
2023-04-24T13:28:57.180Z,33.71
2023-04-24T13:31:26.534Z,32.93
2023-04-24T13:33:55.819Z,32.51
2023-04-24T13:36:25.421Z,32.39
2023-04-24T13:38:54.491Z,32.48
2023-04-24T13:41:24.371Z,32.44
2023-04-24T13:43:54.123Z,32.66
2023-04-24T13:46:23.535Z,32.75
2023-04-24T13:48:52.800Z,33.05
2023-04-24T13:51:21.739Z,32.79
2023-04-24T13:53:50.667Z,32.39
2023-04-24T13:56:19.985Z,32.44
2023-04-24T13:58:50.158Z,32.28
2023-04-24T14:01:19.631Z,32.13
2023-04-24T14:03:49.568Z,31.82
2023-04-24T14:06:20.986Z,31.75
2023-04-24T14:08:50.552Z,31.81
2023-04-24T14:11:22.813Z,31.81
2023-04-24T14:13:52.351Z,31.65
2023-04-24T14:16:22.249Z,31.74
2023-04-24T14:18:51.633Z,31.78
2023-04-24T14:21:21.546Z,31.89
2023-04-24T14:23:51.237Z,31.98
2023-04-24T14:26:22.093Z,32.10
2023-04-24T14:29:03.812Z,32.27
2023-04-24T14:31:41.090Z,32.39
2023-04-24T14:34:11.336Z,32.54
2023-04-24T14:36:40.816Z,32.61
2023-04-24T14:39:10.462Z,31.93
2023-04-24T14:41:40.803Z,31.29
2023-04-24T14:44:09.886Z,30.88
2023-04-24T14:46:41.692Z,30.84
2023-04-24T14:49:14.230Z,30.40
2023-04-24T14:51:47.036Z,29.42
2023-04-24T14:54:17.348Z,28.77
2023-04-24T14:56:47.734Z,28.48
2023-04-24T14:59:17.213Z,28.19
2023-04-24T15:01:47.174Z,28.01
2023-04-24T15:04:17.178Z,27.71
2023-04-24T15:06:46.726Z,27.41
2023-04-24T15:09:16.826Z,27.48
2023-04-24T15:11:46.404Z,27.72
2023-04-24T15:14:16.822Z,28.07
2023-04-24T15:16:46.805Z,28.37
2023-04-24T15:19:17.707Z,28.33
2023-04-24T15:21:47.628Z,28.11
2023-04-24T15:24:16.833Z,27.74
2023-04-24T15:26:46.226Z,27.13
2023-04-24T15:29:16.472Z,27.02
2023-04-24T15:31:46.401Z,27.10
2023-04-24T15:34:15.875Z,26.99
2023-04-24T15:36:45.966Z,26.90
2023-04-24T15:39:15.582Z,26.72
2023-04-24T15:41:45.413Z,26.41
2023-04-24T15:44:15.711Z,26.24
2023-04-24T15:46:46.515Z,26.11
2023-04-24T15:49:16.077Z,25.76
2023-04-24T15:51:45.470Z,25.44
2023-04-24T15:54:15.791Z,25.34
2023-04-24T15:56:46.086Z,25.56
2023-04-24T15:59:15.702Z,25.69
2023-04-24T16:01:45.363Z,25.85
2023-04-24T16:04:14.933Z,25.65
2023-04-24T16:06:45.037Z,25.50
2023-04-24T16:09:16.041Z,25.47
2023-04-24T16:11:45.952Z,25.32
2023-04-24T16:14:16.215Z,25.29
2023-04-24T16:16:46.477Z,25.27
2023-04-24T16:19:16.696Z,25.22
2023-04-24T16:21:46.736Z,25.26
2023-04-24T16:24:16.827Z,25.30
2023-04-24T16:26:46.744Z,25.30
2023-04-24T16:29:17.432Z,25.20
2023-04-24T16:31:47.663Z,25.21
2023-04-24T16:34:17.454Z,25.24
2023-04-24T16:36:48.367Z,25.22
2023-04-24T16:39:17.454Z,25.16
2023-04-24T16:41:47.938Z,25.31
2023-04-24T16:44:18.287Z,25.31
2023-04-24T16:46:48.158Z,25.26
2023-04-24T16:49:17.772Z,25.01
2023-04-24T16:51:48.099Z,24.96
2023-04-24T16:54:17.522Z,24.92
2023-04-24T16:56:46.804Z,24.77
2023-04-24T16:59:17.281Z,24.62
2023-04-24T17:01:46.974Z,24.44
2023-04-24T17:04:16.348Z,24.33
2023-04-24T17:06:46.978Z,24.27
2023-04-24T17:09:18.332Z,24.17
2023-04-24T17:11:48.012Z,24.09
2023-04-24T17:14:17.744Z,24.01
2023-04-24T17:16:47.091Z,23.86
2023-04-24T17:19:16.467Z,23.78
2023-04-24T17:21:46.870Z,23.79
2023-04-24T17:24:16.604Z,23.72
2023-04-24T17:26:46.326Z,23.56
2023-04-24T17:29:16.205Z,23.43
2023-04-24T17:31:45.893Z,23.18
2023-04-24T17:34:14.792Z,22.97
2023-04-24T17:36:43.632Z,22.80
2023-04-24T17:39:12.975Z,22.60
2023-04-24T17:41:43.940Z,22.43
2023-04-24T17:44:13.257Z,22.17
2023-04-24T17:46:44.367Z,21.92
2023-04-24T17:49:15.060Z,21.79
2023-04-24T17:51:45.707Z,21.68
2023-04-24T17:54:18.166Z,21.53
2023-04-24T17:56:49.083Z,21.30
2023-04-24T17:59:18.100Z,21.08
2023-04-24T18:01:47.588Z,20.85
2023-04-24T18:04:17.309Z,20.69
2023-04-24T18:06:47.224Z,20.56
2023-04-24T18:09:19.363Z,20.39
2023-04-24T18:11:51.073Z,20.23
2023-04-24T18:14:21.044Z,20.10
2023-04-24T18:16:52.516Z,20.00
2023-04-24T18:19:22.948Z,19.86
2023-04-24T18:21:52.878Z,19.76
2023-04-24T18:24:23.708Z,19.69
2023-04-24T18:26:53.951Z,19.60
2023-04-24T18:29:23.141Z,19.51
2023-04-24T18:31:53.352Z,19.45
2023-04-24T18:34:23.224Z,19.38
2023-04-24T18:36:55.330Z,19.25
2023-04-24T18:39:26.101Z,19.12
2023-04-24T18:41:56.346Z,18.93
2023-04-24T18:44:27.439Z,18.74
2023-04-24T18:46:57.567Z,18.68
2023-04-24T18:49:26.527Z,18.69
2023-04-24T18:51:56.246Z,18.65
2023-04-24T18:54:25.576Z,18.55
2023-04-24T18:56:54.889Z,18.41
2023-04-24T18:59:24.720Z,18.27
2023-04-24T19:01:54.903Z,18.22
2023-04-24T19:04:24.253Z,18.19
2023-04-24T19:06:53.647Z,18.19
2023-04-24T19:09:23.903Z,18.16
2023-04-24T19:11:54.539Z,18.09
2023-04-24T19:14:24.426Z,18.01
2023-04-24T19:16:53.607Z,17.95
2023-04-24T19:19:24.689Z,17.85
2023-04-24T19:21:54.759Z,17.68
2023-04-24T19:24:26.063Z,17.55
2023-04-24T19:26:56.119Z,17.50
2023-04-24T19:29:25.653Z,17.41
2023-04-24T19:31:56.114Z,17.31
2023-04-24T19:34:26.187Z,17.23
2023-04-24T19:36:55.986Z,17.19
2023-04-24T19:39:25.430Z,17.13
2023-04-24T19:41:58.306Z,17.14
2023-04-24T19:44:29.522Z,17.12
2023-04-24T19:47:00.328Z,17.09
2023-04-24T19:49:32.023Z,17.05
2023-04-24T19:52:04.391Z,16.96
2023-04-24T19:54:35.261Z,16.87
2023-04-24T19:57:07.195Z,16.75
2023-04-24T19:59:40.144Z,16.62
2023-04-24T20:02:12.608Z,16.50
2023-04-24T20:04:42.554Z,16.36
2023-04-24T20:07:13.649Z,16.31
2023-04-24T20:09:43.880Z,16.33
2023-04-24T20:12:15.501Z,16.30
2023-04-24T20:14:44.736Z,16.21
2023-04-24T20:17:14.593Z,16.13
2023-04-24T20:19:44.822Z,16.03
2023-04-24T20:22:16.683Z,15.96
2023-04-24T20:24:47.104Z,15.83
2023-04-24T20:27:19.910Z,15.76
2023-04-24T20:29:51.234Z,15.74
2023-04-24T20:32:21.469Z,15.72
2023-04-24T20:34:51.576Z,15.53
2023-04-24T20:37:21.741Z,15.36
2023-04-24T20:39:53.048Z,15.14
2023-04-24T20:42:23.725Z,14.97
2023-04-24T20:44:54.259Z,14.92
2023-04-24T20:47:23.582Z,14.89
2023-04-24T20:49:53.069Z,14.94
2023-04-24T20:52:22.493Z,14.96
2023-04-24T20:54:52.070Z,14.94
2023-04-24T20:57:21.467Z,14.87
2023-04-24T20:59:50.582Z,14.67
2023-04-24T21:02:20.716Z,14.59
2023-04-24T21:04:52.832Z,14.64
2023-04-24T21:07:23.835Z,14.64
2023-04-24T21:09:53.957Z,14.58
2023-04-24T21:12:23.512Z,14.59
2023-04-24T21:14:53.666Z,14.67
2023-04-24T21:17:24.125Z,14.72
2023-04-24T21:19:54.515Z,14.75
2023-04-24T21:22:24.053Z,14.75
2023-04-24T21:24:55.715Z,14.77
2023-04-24T21:27:25.107Z,14.72
2023-04-24T21:29:54.672Z,14.61
2023-04-24T21:32:24.400Z,14.54
2023-04-24T21:34:54.517Z,14.39
2023-04-24T21:37:24.742Z,14.28
2023-04-24T21:39:54.013Z,14.24
2023-04-24T21:42:23.105Z,14.28
2023-04-24T21:44:52.531Z,14.26
2023-04-24T21:47:21.618Z,14.24
2023-04-24T21:49:50.709Z,14.29
2023-04-24T21:52:20.537Z,14.32
2023-04-24T21:54:50.437Z,14.38
2023-04-24T21:57:20.167Z,14.41
2023-04-24T21:59:50.383Z,14.34
2023-04-24T22:02:19.744Z,14.32
2023-04-24T22:04:50.809Z,14.35
2023-04-24T22:07:20.388Z,14.44
2023-04-24T22:09:49.636Z,14.44
2023-04-24T22:12:19.301Z,14.43
2023-04-24T22:14:49.361Z,14.42
2023-04-24T22:17:19.431Z,14.34
2023-04-24T22:19:49.579Z,14.35
2023-04-24T22:22:20.434Z,14.35
2023-04-24T22:24:49.898Z,14.34
2023-04-24T22:27:19.265Z,14.33
2023-04-24T22:29:48.307Z,14.31
2023-04-24T22:32:19.152Z,14.23
2023-04-24T22:34:48.591Z,14.12
2023-04-24T22:37:18.151Z,14.13
2023-04-24T22:39:47.397Z,14.12
2023-04-24T22:42:17.858Z,14.02
2023-04-24T22:44:48.153Z,13.99
2023-04-24T22:47:20.212Z,13.97
2023-04-24T22:49:50.246Z,13.91
2023-04-24T22:52:21.298Z,13.84
2023-04-24T22:54:50.815Z,13.76
2023-04-24T22:57:20.185Z,13.73
2023-04-24T22:59:49.761Z,13.71
2023-04-24T23:02:19.040Z,13.67
2023-04-24T23:04:48.832Z,13.63
2023-04-24T23:07:18.531Z,13.59
2023-04-24T23:09:47.311Z,13.55
2023-04-24T23:12:16.603Z,13.58
2023-04-24T23:14:45.991Z,13.58
2023-04-24T23:17:15.071Z,13.51
2023-04-24T23:19:43.909Z,13.45
2023-04-24T23:22:13.483Z,13.37
2023-04-24T23:24:42.420Z,13.30
2023-04-24T23:27:11.630Z,13.19
2023-04-24T23:29:40.943Z,13.18
2023-04-24T23:32:10.040Z,13.18
2023-04-24T23:34:39.924Z,13.15
2023-04-24T23:37:09.267Z,13.14
2023-04-24T23:39:38.406Z,13.11
2023-04-24T23:42:08.438Z,13.04
2023-04-24T23:44:37.535Z,13.02
2023-04-24T23:47:06.301Z,13.04
2023-04-24T23:49:36.767Z,13.04
2023-04-24T23:52:05.972Z,13.00
2023-04-24T23:54:35.539Z,12.97
2023-04-24T23:57:05.105Z,12.96
2023-04-24T23:59:34.514Z,12.98
